createdAt,value
2023-03-31T00:07:08.585Z,26.4296
2023-03-31T00:22:10.222Z,26.3516
2023-03-31T00:37:11.851Z,26.4197
2023-03-31T00:52:13.561Z,26.2767
2023-03-31T01:07:15.247Z,26.3646
2023-03-31T01:22:16.881Z,26.8196
2023-03-31T01:37:18.532Z,26.7769
2023-03-31T01:52:20.246Z,26.3516
2023-03-31T02:07:21.958Z,26.6147
2023-03-31T02:22:23.615Z,26.7577
2023-03-31T02:37:25.269Z,26.3349
2023-03-31T02:52:26.937Z,26.6958
2023-03-31T03:07:28.621Z,26.1888
2023-03-31T03:22:30.270Z,26.0848
2023-03-31T03:37:31.978Z,25.5679
2023-03-31T03:52:33.630Z,25.5679
2023-03-31T04:07:35.264Z,25.8409
2023-03-31T04:22:36.887Z,25.3469
2023-03-31T04:37:38.540Z,25.8607
2023-03-31T04:52:40.218Z,26.4259
2023-03-31T05:07:41.903Z,25.9158
2023-03-31T05:22:44.110Z,25.714
2023-03-31T05:37:45.890Z,25.0609
2023-03-31T05:52:47.528Z,25.5122
2023-03-31T06:07:49.164Z,26.0062
2023-03-31T06:22:50.809Z,25.5512
2023-03-31T06:37:52.458Z,24.9959
2023-03-31T06:52:54.094Z,24.453
2023-03-31T07:07:55.749Z,25.3661
2023-03-31T07:22:57.373Z,25.0021
2023-03-31T07:37:59.015Z,25.0702
2023-03-31T07:53:00.689Z,24.2902
2023-03-31T08:08:02.371Z,24.518
2023-03-31T08:23:04.002Z,24.8752
2023-03-31T08:38:05.642Z,24.2252
2023-03-31T08:53:07.316Z,24.6152
2023-03-31T09:08:09.005Z,24.2611
2023-03-31T09:23:10.659Z,24.4363
2023-03-31T09:38:12.311Z,24.3812
2023-03-31T09:53:13.972Z,24.2741
2023-03-31T10:08:15.595Z,24.4951
2023-03-31T10:23:17.252Z,24.3812
2023-03-31T10:38:19.043Z,24.3682
2023-03-31T10:53:20.674Z,24.44
2023-03-31T11:08:22.314Z,24.6963
2023-03-31T11:23:23.982Z,23.712
2023-03-31T11:38:25.624Z,24.0302
2023-03-31T11:53:27.226Z,24.1701
2023-03-31T12:08:28.854Z,24.323
2023-03-31T12:23:30.505Z,24.1992
2023-03-31T12:38:32.133Z,24.1212
2023-03-31T12:53:33.804Z,24.1862
2023-03-31T13:08:35.460Z,24.1342
2023-03-31T13:23:37.152Z,24.4982
2023-03-31T13:38:38.887Z,23.9132
2023-03-31T13:53:40.534Z,24.5273
2023-03-31T14:08:42.169Z,24.1404
2023-03-31T14:23:43.806Z,24.2574
2023-03-31T14:38:45.489Z,23.9101
2023-03-31T14:53:47.141Z,24.2252
2023-03-31T15:08:48.806Z,24.5793
2023-03-31T15:23:50.426Z,24.0432
2023-03-31T15:38:52.078Z,23.9293
2023-03-31T15:53:53.784Z,24.6214
2023-03-31T16:08:55.460Z,24.2543
2023-03-31T16:23:57.099Z,24.7743
2023-03-31T17:45:04.718Z,24.284
2023-03-31T18:00:06.411Z,24.7644
2023-03-31T18:15:08.073Z,24.3131
2023-03-31T18:30:09.775Z,25.1191
2023-03-31T18:45:11.418Z,24.0209
2023-03-31T19:00:13.062Z,24.5211
2023-03-31T19:15:14.977Z,24.3651
2023-03-31T19:30:16.641Z,25.2714
2023-03-31T19:45:18.315Z,24.8721
2023-03-31T20:00:19.985Z,24.7322
2023-03-31T20:15:21.660Z,24.9501
2023-03-31T20:30:23.306Z,24.4041
2023-03-31T20:45:24.939Z,25.0213
2023-03-31T21:00:26.554Z,24.3521
2023-03-31T21:15:28.287Z,24.7712
2023-03-31T21:30:29.948Z,25.1222
2023-03-31T21:45:31.874Z,24.8523
2023-03-31T22:00:33.703Z,25.0052
2023-03-31T22:15:35.456Z,24.4722
2023-03-31T22:30:37.231Z,24.4431
2023-03-31T22:45:38.891Z,24.336
2023-03-31T23:00:40.594Z,24.57
2023-03-31T23:15:42.263Z,25.1321
2023-03-31T23:30:43.828Z,24.6542
2023-03-31T23:45:45.491Z,25.246
